sensor_id;sensor_type;location;lat;lon;timestamp;pressure;altitude;pressure_sealevel;temperature;humidity
33404;BME280;19751;40.274;18.268;2022-09-09T00:10:56;101047.59;;;26.45;100.00
33404;BME280;19751;40.274;18.268;2022-09-09T00:17:11;101028.00;;;26.42;100.00
33404;BME280;19751;40.274;18.268;2022-09-09T00:29:51;101007.59;;;26.38;100.00
33404;BME280;19751;40.274;18.268;2022-09-09T00:32:20;101000.41;;;26.37;100.00
33404;BME280;19751;40.274;18.268;2022-09-09T00:35:00;101001.53;;;26.36;100.00
33404;BME280;19751;40.274;18.268;2022-09-09T00:37:47;101005.94;;;26.37;100.00
33404;BME280;19751;40.274;18.268;2022-09-09T00:40:33;101008.97;;;26.35;100.00
33404;BME280;19751;40.274;18.268;2022-09-09T01:01:48;100996.88;;;26.31;100.00
33404;BME280;19751;40.274;18.268;2022-09-09T01:04:21;100996.88;;;26.31;100.00
33404;BME280;19751;40.274;18.268;2022-09-09T01:07:17;101001.56;;;26.31;100.00
33404;BME280;19751;40.274;18.268;2022-09-09T01:13:13;100981.69;;;26.28;100.00
33404;BME280;19751;40.274;18.268;2022-09-09T01:19:32;100978.41;;;26.26;100.00
33404;BME280;19751;40.274;18.268;2022-09-09T01:28:26;100982.03;;;26.22;100.00
33404;BME280;19751;40.274;18.268;2022-09-09T01:34:01;100980.38;;;26.21;100.00
33404;BME280;19751;40.274;18.268;2022-09-09T01:39:53;100984.53;;;26.18;100.00
33404;BME280;19751;40.274;18.268;2022-09-09T01:42:37;100978.19;;;26.18;100.00
33404;BME280;19751;40.274;18.268;2022-09-09T01:45:04;100971.00;;;26.17;100.00
33404;BME280;19751;40.274;18.268;2022-09-09T01:47:29;100975.72;;;26.16;100.00
33404;BME280;19751;40.274;18.268;2022-09-09T01:50:01;100964.16;;;26.14;100.00
33404;BME280;19751;40.274;18.268;2022-09-09T01:52:29;100965.28;;;26.13;100.00
33404;BME280;19751;40.274;18.268;2022-09-09T01:54:55;100962.50;;;26.13;100.00
33404;BME280;19751;40.274;18.268;2022-09-09T02:00:13;100962.78;;;26.12;100.00
33404;BME280;19751;40.274;18.268;2022-09-09T02:03:16;100948.97;;;26.12;100.00
33404;BME280;19751;40.274;18.268;2022-09-09T02:05:52;100954.50;;;26.12;100.00
33404;BME280;19751;40.274;18.268;2022-09-09T02:08:49;100943.44;;;26.12;100.00
33404;BME280;19751;40.274;18.268;2022-09-09T02:11:21;100952.03;;;26.10;100.00
33404;BME280;19751;40.274;18.268;2022-09-09T02:13:51;100945.41;;;26.11;100.00
33404;BME280;19751;40.274;18.268;2022-09-09T02:16:23;100948.16;;;26.11;100.00
33404;BME280;19751;40.274;18.268;2022-09-09T02:21:54;100950.41;;;26.09;100.00
33404;BME280;19751;40.274;18.268;2022-09-09T02:24:21;100943.19;;;26.08;100.00
33404;BME280;19751;40.274;18.268;2022-09-09T02:27:17;100945.13;;;26.08;100.00
33404;BME280;19751;40.274;18.268;2022-09-09T02:29:45;100948.72;;;26.08;100.00
33404;BME280;19751;40.274;18.268;2022-09-09T02:32:15;100939.63;;;26.08;100.00
33404;BME280;19751;40.274;18.268;2022-09-09T02:38:08;100944.31;;;26.07;100.00
33404;BME280;19751;40.274;18.268;2022-09-09T02:50:29;100945.97;;;26.08;100.00
33404;BME280;19751;40.274;18.268;2022-09-09T02:53:24;100940.44;;;26.08;100.00
33404;BME280;19751;40.274;18.268;2022-09-09T02:56:20;100934.41;;;26.06;100.00
33404;BME280;19751;40.274;18.268;2022-09-09T02:59:09;100932.22;;;26.03;100.00
33404;BME280;19751;40.274;18.268;2022-09-09T03:01:35;100926.69;;;26.03;100.00
33404;BME280;19751;40.274;18.268;2022-09-09T03:04:02;100925.03;;;26.02;100.00
33404;BME280;19751;40.274;18.268;2022-09-09T03:07:02;100922.59;;;26.00;100.00
33404;BME280;19751;40.274;18.268;2022-09-09T03:09:29;100921.75;;;26.00;100.00
33404;BME280;19751;40.274;18.268;2022-09-09T03:11:55;100934.72;;;25.99;100.00
33404;BME280;19751;40.274;18.268;2022-09-09T03:14:57;100929.50;;;25.98;100.00
33404;BME280;19751;40.274;18.268;2022-09-09T03:17:22;100924.78;;;25.98;100.00
33404;BME280;19751;40.274;18.268;2022-09-09T03:22:40;100915.69;;;25.98;100.00
33404;BME280;19751;40.274;18.268;2022-09-09T03:25:25;100918.16;;;25.99;100.00
33404;BME280;19751;40.274;18.268;2022-09-09T03:27:52;100908.78;;;26.00;100.00
33404;BME280;19751;40.274;18.268;2022-09-09T03:30:24;100917.06;;;26.00;100.00
33404;BME280;19751;40.274;18.268;2022-09-09T03:36:02;100934.16;;;26.02;100.00
33404;BME280;19751;40.274;18.268;2022-09-09T03:38:27;100931.94;;;26.05;100.00
33404;BME280;19751;40.274;18.268;2022-09-09T03:41:14;100926.13;;;26.06;100.00
33404;BME280;19751;40.274;18.268;2022-09-09T03:43:39;100926.63;;;26.08;100.00
33404;BME280;19751;40.274;18.268;2022-09-09T03:46:05;100921.97;;;26.09;100.00
33404;BME280;19751;40.274;18.268;2022-09-09T03:51:28;100929.94;;;26.10;100.00
33404;BME280;19751;40.274;18.268;2022-09-09T03:53:54;100921.66;;;26.10;100.00
33404;BME280;19751;40.274;18.268;2022-09-09T03:59:28;100928.81;;;26.11;100.00
33404;BME280;19751;40.274;18.268;2022-09-09T04:01:53;100920.56;;;26.11;100.00
33404;BME280;19751;40.274;18.268;2022-09-09T04:04:21;100914.22;;;26.11;100.00
33404;BME280;19751;40.274;18.268;2022-09-09T04:06:47;100917.22;;;26.14;100.00
33404;BME280;19751;40.274;18.268;2022-09-09T04:12:35;100910.56;;;26.15;100.00
33404;BME280;19751;40.274;18.268;2022-09-09T04:15:22;100906.69;;;26.16;100.00
33404;BME280;19751;40.274;18.268;2022-09-09T04:17:48;100904.75;;;26.17;100.00
33404;BME280;19751;40.274;18.268;2022-09-09T04:20:14;100900.34;;;26.16;100.00
33404;BME280;19751;40.274;18.268;2022-09-09T04:22:56;100897.91;;;26.14;100.00
33404;BME280;19751;40.274;18.268;2022-09-09T04:25:35;100899.22;;;26.17;100.00
33404;BME280;19751;40.274;18.268;2022-09-09T04:28:00;100904.75;;;26.17;100.00
33404;BME280;19751;40.274;18.268;2022-09-09T04:30:26;100901.16;;;26.16;100.00
33404;BME280;19751;40.274;18.268;2022-09-09T04:36:27;100911.13;;;26.17;100.00
33404;BME280;19751;40.274;18.268;2022-09-09T04:38:52;100918.56;;;26.17;100.00
33404;BME280;19751;40.274;18.268;2022-09-09T04:41:21;100913.03;;;26.17;100.00
33404;BME280;19751;40.274;18.268;2022-09-09T04:43:47;100911.94;;;26.18;100.00
33404;BME280;19751;40.274;18.268;2022-09-09T04:46:27;100915.53;;;26.18;100.00
33404;BME280;19751;40.274;18.268;2022-09-09T04:48:52;100921.88;;;26.19;100.00
33404;BME280;19751;40.274;18.268;2022-09-09T04:51:19;100930.97;;;26.19;100.00
33404;BME280;19751;40.274;18.268;2022-09-09T04:57:06;100922.38;;;26.21;100.00
33404;BME280;19751;40.274;18.268;2022-09-09T04:59:42;100930.41;;;26.22;100.00
33404;BME280;19751;40.274;18.268;2022-09-09T05:02:08;100930.41;;;26.22;100.00
33404;BME280;19751;40.274;18.268;2022-09-09T05:04:34;100937.25;;;26.25;100.00
33404;BME280;19751;40.274;18.268;2022-09-09T05:07:07;100938.13;;;26.25;100.00
33404;BME280;19751;40.274;18.268;2022-09-09T05:09:33;100947.47;;;26.24;100.00
33404;BME280;19751;40.274;18.268;2022-09-09T05:15:19;100950.75;;;26.32;100.00
33404;BME280;19751;40.274;18.268;2022-09-09T05:18:05;100954.31;;;26.32;100.00
33404;BME280;19751;40.274;18.268;2022-09-09T05:23:52;100953.75;;;26.35;100.00
33404;BME280;19751;40.274;18.268;2022-09-09T05:26:20;100950.41;;;26.38;100.00
33404;BME280;19751;40.274;18.268;2022-09-09T05:28:54;100948.47;;;26.39;100.00
33404;BME280;19751;40.274;18.268;2022-09-09T05:31:20;100951.50;;;26.42;100.00
33404;BME280;19751;40.274;18.268;2022-09-09T05:33:47;100958.66;;;26.43;100.00
33404;BME280;19751;40.274;18.268;2022-09-09T05:36:25;100961.16;;;26.45;100.00
33404;BME280;19751;40.274;18.268;2022-09-09T05:38:51;100967.22;;;26.47;100.00
33404;BME280;19751;40.274;18.268;2022-09-09T05:41:39;100967.72;;;26.49;100.00
33404;BME280;19751;40.274;18.268;2022-09-09T05:44:05;100976.56;;;26.51;100.00
33404;BME280;19751;40.274;18.268;2022-09-09T05:46:31;100979.34;;;26.51;100.00
33404;BME280;19751;40.274;18.268;2022-09-09T05:48:57;100992.03;;;26.52;100.00
33404;BME280;19751;40.274;18.268;2022-09-09T05:51:27;100986.50;;;26.52;100.00
33404;BME280;19751;40.274;18.268;2022-09-09T05:53:55;100995.03;;;26.56;100.00
33404;BME280;19751;40.274;18.268;2022-09-09T05:56:52;100991.16;;;26.57;100.00
33404;BME280;19751;40.274;18.268;2022-09-09T05:59:19;100992.78;;;26.58;100.00
33404;BME280;19751;40.274;18.268;2022-09-09T06:01:45;100995.78;;;26.61;100.00
33404;BME280;19751;40.274;18.268;2022-09-09T06:04:11;100990.81;;;26.63;100.00
33404;BME280;19751;40.274;18.268;2022-09-09T06:06:38;100985.00;;;26.65;100.00
33404;BME280;19751;40.274;18.268;2022-09-09T06:09:06;100997.13;;;26.69;100.00
33404;BME280;19751;40.274;18.268;2022-09-09T06:11:36;100998.19;;;26.73;100.00
33404;BME280;19751;40.274;18.268;2022-09-09T06:14:02;100998.72;;;26.75;100.00
33404;BME280;19751;40.274;18.268;2022-09-09T06:16:29;100997.84;;;26.80;100.00
33404;BME280;19751;40.274;18.268;2022-09-09T06:18:56;100993.66;;;26.82;100.00
33404;BME280;19751;40.274;18.268;2022-09-09T06:21:24;100996.16;;;26.84;100.00
33404;BME280;19751;40.274;18.268;2022-09-09T06:23:56;100999.44;;;26.86;100.00
33404;BME280;19751;40.274;18.268;2022-09-09T06:26:23;100992.78;;;26.87;100.00
33404;BME280;19751;40.274;18.268;2022-09-09T06:28:54;101001.63;;;26.89;100.00
33404;BME280;19751;40.274;18.268;2022-09-09T06:31:22;101001.63;;;26.89;100.00
33404;BME280;19751;40.274;18.268;2022-09-09T06:33:53;100997.72;;;26.90;100.00
33404;BME280;19751;40.274;18.268;2022-09-09T06:36:27;101001.63;;;26.89;100.00
33404;BME280;19751;40.274;18.268;2022-09-09T06:38:54;101014.00;;;26.91;100.00
33404;BME280;19751;40.274;18.268;2022-09-09T06:41:21;101015.38;;;26.94;100.00
33404;BME280;19751;40.274;18.268;2022-09-09T06:43:47;101015.91;;;26.96;100.00
33404;BME280;19751;40.274;18.268;2022-09-09T06:46:16;101025.28;;;27.00;100.00
33404;BME280;19751;40.274;18.268;2022-09-09T06:48:43;101016.91;;;27.05;100.00
33404;BME280;19751;40.274;18.268;2022-09-09T06:51:21;101014.63;;;27.12;100.00
33404;BME280;19751;40.274;18.268;2022-09-09T06:53:50;101019.59;;;27.15;100.00
33404;BME280;19751;40.274;18.268;2022-09-09T06:58:41;101022.25;;;27.25;100.00
33404;BME280;19751;40.274;18.268;2022-09-09T07:01:15;101019.41;;;27.31;100.00
33404;BME280;19751;40.274;18.268;2022-09-09T07:03:42;101024.06;;;27.35;100.00
33404;BME280;19751;40.274;18.268;2022-09-09T07:06:14;101027.06;;;27.39;100.00
33404;BME280;19751;40.274;18.268;2022-09-09T07:08:40;101035.59;;;27.42;100.00
33404;BME280;19751;40.274;18.268;2022-09-09T07:11:07;101038.59;;;27.46;100.00
33404;BME280;19751;40.274;18.268;2022-09-09T07:13:34;101041.56;;;27.49;100.00
33404;BME280;19751;40.274;18.268;2022-09-09T07:16:09;101037.94;;;27.54;100.00
33404;BME280;19751;40.274;18.268;2022-09-09T07:18:35;101040.09;;;27.57;100.00
33404;BME280;19751;40.274;18.268;2022-09-09T07:21:02;101040.06;;;27.62;100.00
33404;BME280;19751;40.274;18.268;2022-09-09T07:23:29;101047.25;;;27.63;100.00
33404;BME280;19751;40.274;18.268;2022-09-09T07:25:56;101044.72;;;27.67;100.00
33404;BME280;19751;40.274;18.268;2022-09-09T07:28:22;101044.09;;;27.70;100.00
33404;BME280;19751;40.274;18.268;2022-09-09T07:30:56;101047.94;;;27.74;100.00
33404;BME280;19751;40.274;18.268;2022-09-09T07:33:24;101055.06;;;27.80;99.65
33404;BME280;19751;40.274;18.268;2022-09-09T07:35:50;101043.09;;;27.85;99.43
33404;BME280;19751;40.274;18.268;2022-09-09T07:38:16;101042.50;;;27.88;98.33
33404;BME280;19751;40.274;18.268;2022-09-09T07:40:42;101044.16;;;27.89;97.88
33404;BME280;19751;40.274;18.268;2022-09-09T07:43:09;101032.72;;;27.95;97.75
33404;BME280;19751;40.274;18.268;2022-09-09T07:45:35;101025.06;;;28.06;96.56
33404;BME280;19751;40.274;18.268;2022-09-09T07:48:01;101031.88;;;28.14;95.76
33404;BME280;19751;40.274;18.268;2022-09-09T07:50:28;101025.97;;;28.20;94.92
33404;BME280;19751;40.274;18.268;2022-09-09T07:52:53;101020.63;;;28.24;95.17
33404;BME280;19751;40.274;18.268;2022-09-09T07:55:20;101024.75;;;28.27;95.51
33404;BME280;19751;40.274;18.268;2022-09-09T07:57:46;101025.50;;;28.32;95.20
33404;BME280;19751;40.274;18.268;2022-09-09T08:00:13;101026.34;;;28.33;95.04
33404;BME280;19751;40.274;18.268;2022-09-09T08:02:40;101025.47;;;28.37;95.12
33404;BME280;19751;40.274;18.268;2022-09-09T08:05:06;101017.28;;;28.46;93.65
33404;BME280;19751;40.274;18.268;2022-09-09T08:07:32;101018.22;;;28.55;93.02
33404;BME280;19751;40.274;18.268;2022-09-09T08:09:58;101023.38;;;28.62;92.77
33404;BME280;19751;40.274;18.268;2022-09-09T08:12:24;101025.75;;;28.68;92.14
33404;BME280;19751;40.274;18.268;2022-09-09T08:14:49;101028.13;;;28.75;91.60
33404;BME280;19751;40.274;18.268;2022-09-09T08:17:17;101035.22;;;28.81;91.78
33404;BME280;19751;40.274;18.268;2022-09-09T08:19:42;101043.75;;;28.85;92.04
33404;BME280;19751;40.274;18.268;2022-09-09T08:22:09;101046.97;;;28.92;89.63
33404;BME280;19751;40.274;18.268;2022-09-09T08:24:35;101052.72;;;28.95;88.96
33404;BME280;19751;40.274;18.268;2022-09-09T08:27:01;101063.28;;;28.93;88.60
33404;BME280;19751;40.274;18.268;2022-09-09T08:29:27;101051.63;;;28.96;88.54
33404;BME280;19751;40.274;18.268;2022-09-09T08:31:56;101041.56;;;29.01;88.02
33404;BME280;19751;40.274;18.268;2022-09-09T08:34:23;101042.28;;;29.06;88.00
33404;BME280;19751;40.274;18.268;2022-09-09T08:36:51;101047.44;;;29.13;88.16
33404;BME280;19751;40.274;18.268;2022-09-09T08:39:19;101048.97;;;29.19;86.88
33404;BME280;19751;40.274;18.268;2022-09-09T08:50:30;101049.38;;;29.40;85.11
33404;BME280;19751;40.274;18.268;2022-09-09T08:53:02;101037.34;;;29.44;84.30
33404;BME280;19751;40.274;18.268;2022-09-09T08:55:43;101033.13;;;29.47;84.73
33404;BME280;19751;40.274;18.268;2022-09-09T08:58:27;101019.69;;;29.54;84.61
33404;BME280;19751;40.274;18.268;2022-09-09T09:00:57;101031.31;;;29.56;83.77
33404;BME280;19751;40.274;18.268;2022-09-09T09:11:48;101024.38;;;29.81;82.34
33404;BME280;19751;40.274;18.268;2022-09-09T09:14:23;101019.63;;;29.82;82.10
33404;BME280;19751;40.274;18.268;2022-09-09T09:19:27;100998.78;;;29.84;80.86
33404;BME280;19751;40.274;18.268;2022-09-09T09:27:36;100988.13;;;30.00;79.72
33404;BME280;19751;40.274;18.268;2022-09-09T09:32:54;100978.84;;;30.05;79.33
33404;BME280;19751;40.274;18.268;2022-09-09T09:35:21;100967.41;;;30.06;80.00
33404;BME280;19751;40.274;18.268;2022-09-09T09:37:47;100960.09;;;30.10;80.35
33404;BME280;19751;40.274;18.268;2022-09-09T09:40:21;100943.03;;;30.17;79.09
33404;BME280;19751;40.274;18.268;2022-09-09T09:43:02;100954.00;;;30.22;76.63
33404;BME280;19751;40.274;18.268;2022-09-09T09:45:35;100944.72;;;30.27;76.50
33404;BME280;19751;40.274;18.268;2022-09-09T09:48:10;100946.72;;;30.35;77.22
33404;BME280;19751;40.274;18.268;2022-09-09T09:50:48;100951.66;;;30.38;75.93
33404;BME280;19751;40.274;18.268;2022-09-09T09:53:33;100944.97;;;30.39;75.75
33404;BME280;19751;40.274;18.268;2022-09-09T09:56:08;100948.75;;;30.43;74.25
33404;BME280;19751;40.274;18.268;2022-09-09T09:58:50;100941.41;;;30.47;73.95
33404;BME280;19751;40.274;18.268;2022-09-09T10:01:28;100951.44;;;30.57;73.27
33404;BME280;19751;40.274;18.268;2022-09-09T10:04:16;100954.72;;;30.59;72.83
33404;BME280;19751;40.274;18.268;2022-09-09T10:06:44;100954.28;;;30.65;72.56
33404;BME280;19751;40.274;18.268;2022-09-09T10:09:29;100938.47;;;30.75;70.92
33404;BME280;19751;40.274;18.268;2022-09-09T10:15:16;100934.09;;;30.82;70.37
33404;BME280;19751;40.274;18.268;2022-09-09T10:18:15;100924.59;;;30.83;70.57
33404;BME280;19751;40.274;18.268;2022-09-09T10:20:57;100921.50;;;30.85;69.84
33404;BME280;19751;40.274;18.268;2022-09-09T10:29:49;100912.34;;;30.93;71.49
33404;BME280;19751;40.274;18.268;2022-09-09T10:32:46;100914.03;;;30.94;71.19
33404;BME280;19751;40.274;18.268;2022-09-09T10:35:33;100913.34;;;30.97;71.26
33404;BME280;19751;40.274;18.268;2022-09-09T10:46:34;100897.50;;;31.06;70.44
33404;BME280;19751;40.274;18.268;2022-09-09T10:54:42;100887.88;;;31.12;70.48
33404;BME280;19751;40.274;18.268;2022-09-09T10:57:33;100894.44;;;31.16;69.69
33404;BME280;19751;40.274;18.268;2022-09-09T11:00:14;100906.72;;;31.15;70.65
33404;BME280;19751;40.274;18.268;2022-09-09T11:02:41;100909.50;;;31.15;70.33
33404;BME280;19751;40.274;18.268;2022-09-09T11:07:50;100907.03;;;31.23;69.96
33404;BME280;19751;40.274;18.268;2022-09-09T11:13:38;100900.47;;;31.18;70.19
33404;BME280;19751;40.274;18.268;2022-09-09T11:16:24;100907.00;;;31.14;69.71
33404;BME280;19751;40.274;18.268;2022-09-09T11:19:00;100909.81;;;31.23;70.75
33404;BME280;19751;40.274;18.268;2022-09-09T11:21:37;100906.38;;;31.17;70.12
33404;BME280;19751;40.274;18.268;2022-09-09T11:24:11;100903.41;;;31.13;70.35
33404;BME280;19751;40.274;18.268;2022-09-09T11:26:46;100907.66;;;31.02;70.29
33404;BME280;19751;40.274;18.268;2022-09-09T11:29:36;100912.91;;;31.04;71.07
33404;BME280;19751;40.274;18.268;2022-09-09T11:40:59;100903.38;;;30.96;71.57
33404;BME280;19751;40.274;18.268;2022-09-09T11:43:38;100911.09;;;30.99;71.41
33404;BME280;19751;40.274;18.268;2022-09-09T11:46:05;100897.03;;;31.13;69.29
33404;BME280;19751;40.274;18.268;2022-09-09T11:48:35;100896.88;;;31.27;68.23
33404;BME280;19751;40.274;18.268;2022-09-09T11:51:10;100894.47;;;31.42;66.52
33404;BME280;19751;40.274;18.268;2022-09-09T11:53:49;100902.38;;;31.58;66.42
33404;BME280;19751;40.274;18.268;2022-09-09T11:56:25;100911.69;;;31.71;67.38
33404;BME280;19751;40.274;18.268;2022-09-09T11:59:03;100904.78;;;31.77;65.41
33404;BME280;19751;40.274;18.268;2022-09-09T12:04:26;100909.25;;;31.69;66.55
33404;BME280;19751;40.274;18.268;2022-09-09T12:12:46;100903.19;;;31.58;69.29
33404;BME280;19751;40.274;18.268;2022-09-09T12:18:04;100903.34;;;31.71;68.32
33404;BME280;19751;40.274;18.268;2022-09-09T12:20:35;100892.69;;;31.73;67.27
33404;BME280;19751;40.274;18.268;2022-09-09T12:37:34;100893.50;;;31.47;69.09
33404;BME280;19751;40.274;18.268;2022-09-09T12:42:44;100905.38;;;31.13;70.30
33404;BME280;19751;40.274;18.268;2022-09-09T12:45:19;100904.53;;;31.04;70.84
33404;BME280;19751;40.274;18.268;2022-09-09T12:47:52;100899.63;;;31.09;71.38
33404;BME280;19751;40.274;18.268;2022-09-09T12:50:45;100897.91;;;31.31;70.86
33404;BME280;19751;40.274;18.268;2022-09-09T12:53:28;100892.16;;;31.27;69.74
33404;BME280;19751;40.274;18.268;2022-09-09T12:56:00;100895.47;;;31.38;69.79
33404;BME280;19751;40.274;18.268;2022-09-09T12:58:30;100888.09;;;31.42;69.62
33404;BME280;19751;40.274;18.268;2022-09-09T13:00:59;100884.16;;;31.52;68.48
33404;BME280;19751;40.274;18.268;2022-09-09T13:03:28;100894.81;;;31.50;66.15
33404;BME280;19751;40.274;18.268;2022-09-09T13:05:58;100885.66;;;31.49;66.93
33404;BME280;19751;40.274;18.268;2022-09-09T13:08:27;100870.09;;;31.65;67.41
33404;BME280;19751;40.274;18.268;2022-09-09T13:11:06;100869.75;;;31.76;66.76
33404;BME280;19751;40.274;18.268;2022-09-09T13:13:38;100876.94;;;31.77;67.00
33404;BME280;19751;40.274;18.268;2022-09-09T13:16:06;100878.63;;;31.86;67.60
33404;BME280;19751;40.274;18.268;2022-09-09T13:18:39;100865.66;;;31.99;66.33
33404;BME280;19751;40.274;18.268;2022-09-09T13:21:06;100867.63;;;31.99;65.96
33404;BME280;19751;40.274;18.268;2022-09-09T13:23:34;100867.81;;;31.85;65.06
33404;BME280;19751;40.274;18.268;2022-09-09T13:26:26;100874.34;;;31.89;64.20
33404;BME280;19751;40.274;18.268;2022-09-09T13:28:53;100871.72;;;32.01;64.91
33404;BME280;19751;40.274;18.268;2022-09-09T13:31:27;100869.41;;;32.12;65.08
33404;BME280;19751;40.274;18.268;2022-09-09T13:33:53;100867.44;;;32.04;65.58
33404;BME280;19751;40.274;18.268;2022-09-09T13:36:31;100863.53;;;31.96;66.09
33404;BME280;19751;40.274;18.268;2022-09-09T13:38:59;100856.97;;;31.92;66.91
33404;BME280;19751;40.274;18.268;2022-09-09T13:41:30;100865.00;;;32.02;65.67
33404;BME280;19751;40.274;18.268;2022-09-09T13:43:57;100856.13;;;32.09;65.52
33404;BME280;19751;40.274;18.268;2022-09-09T13:51:41;100851.38;;;32.09;65.74
33404;BME280;19751;40.274;18.268;2022-09-09T13:54:11;100847.25;;;32.15;65.60
33404;BME280;19751;40.274;18.268;2022-09-09T13:56:39;100851.38;;;32.09;65.22
33404;BME280;19751;40.274;18.268;2022-09-09T13:59:14;100838.75;;;32.12;65.41
33404;BME280;19751;40.274;18.268;2022-09-09T14:01:40;100841.16;;;32.22;64.68
33404;BME280;19751;40.274;18.268;2022-09-09T14:04:06;100845.75;;;32.27;64.35
33404;BME280;19751;40.274;18.268;2022-09-09T14:06:34;100848.19;;;32.28;63.83
33404;BME280;19751;40.274;18.268;2022-09-09T14:09:02;100849.84;;;32.29;63.33
33404;BME280;19751;40.274;18.268;2022-09-09T14:11:28;100844.75;;;32.31;63.49
33404;BME280;19751;40.274;18.268;2022-09-09T14:13:54;100842.09;;;32.35;63.93
33404;BME280;19751;40.274;18.268;2022-09-09T14:16:19;100830.94;;;32.35;62.81
33404;BME280;19751;40.274;18.268;2022-09-09T14:18:48;100839.19;;;32.31;63.49
33404;BME280;19751;40.274;18.268;2022-09-09T14:21:14;100833.91;;;32.30;64.08
33404;BME280;19751;40.274;18.268;2022-09-09T14:23:41;100830.47;;;32.33;63.83
33404;BME280;19751;40.274;18.268;2022-09-09T14:26:07;100838.19;;;32.36;64.19
33404;BME280;19751;40.274;18.268;2022-09-09T14:28:34;100837.84;;;32.37;63.76
33404;BME280;19751;40.274;18.268;2022-09-09T14:31:02;100833.06;;;32.38;63.63
33404;BME280;19751;40.274;18.268;2022-09-09T14:33:28;100837.66;;;32.42;63.47
33404;BME280;19751;40.274;18.268;2022-09-09T14:36:00;100841.44;;;32.47;61.83
33404;BME280;19751;40.274;18.268;2022-09-09T14:38:30;100839.44;;;32.47;61.81
33404;BME280;19751;40.274;18.268;2022-09-09T14:40:56;100833.88;;;32.47;61.37
33404;BME280;19751;40.274;18.268;2022-09-09T14:43:23;100828.31;;;32.47;59.82
33404;BME280;19751;40.274;18.268;2022-09-09T14:45:49;100823.38;;;32.53;60.01
33404;BME280;19751;40.274;18.268;2022-09-09T14:48:17;100825.50;;;32.56;59.73
33404;BME280;19751;40.274;18.268;2022-09-09T14:50:43;100829.06;;;32.65;59.66
33404;BME280;19751;40.274;18.268;2022-09-09T14:53:09;100827.38;;;32.73;59.34
33404;BME280;19751;40.274;18.268;2022-09-09T14:55:36;100823.88;;;32.76;59.30
33404;BME280;19751;40.274;18.268;2022-09-09T14:58:02;100823.88;;;32.76;59.20
33404;BME280;19751;40.274;18.268;2022-09-09T15:00:27;100825.25;;;32.70;58.35
33404;BME280;19751;40.274;18.268;2022-09-09T15:02:53;100838.69;;;32.67;59.42
33404;BME280;19751;40.274;18.268;2022-09-09T15:05:19;100817.56;;;32.66;59.00
33404;BME280;19751;40.274;18.268;2022-09-09T15:07:45;100825.25;;;32.70;59.69
33404;BME280;19751;40.274;18.268;2022-09-09T15:10:11;100817.09;;;32.64;59.31
33404;BME280;19751;40.274;18.268;2022-09-09T15:12:37;100820.19;;;32.63;58.97
33404;BME280;19751;40.274;18.268;2022-09-09T15:15:04;100829.06;;;32.65;59.56
33404;BME280;19751;40.274;18.268;2022-09-09T15:17:30;100818.72;;;32.65;59.62
33404;BME280;19751;40.274;18.268;2022-09-09T15:19:56;100824.94;;;32.62;58.63
33404;BME280;19751;40.274;18.268;2022-09-09T15:22:22;100825.63;;;32.59;57.44
33404;BME280;19751;40.274;18.268;2022-09-09T15:24:49;100820.59;;;32.53;58.41
33404;BME280;19751;40.274;18.268;2022-09-09T15:27:15;100821.25;;;32.50;58.42
33404;BME280;19751;40.274;18.268;2022-09-09T15:29:42;100821.09;;;32.46;59.28
33404;BME280;19751;40.274;18.268;2022-09-09T15:32:09;100813.91;;;32.45;60.58
33404;BME280;19751;40.274;18.268;2022-09-09T15:34:35;100823.41;;;32.44;62.10
33404;BME280;19751;40.274;18.268;2022-09-09T15:37:00;100818.81;;;32.48;63.58
33404;BME280;19751;40.274;18.268;2022-09-09T15:39:26;100818.13;;;32.51;64.72
33404;BME280;19751;40.274;18.268;2022-09-09T15:41:52;100821.09;;;32.46;64.93
33404;BME280;19751;40.274;18.268;2022-09-09T15:44:18;100821.75;;;32.43;64.63
33404;BME280;19751;40.274;18.268;2022-09-09T15:46:52;100821.91;;;32.47;66.40
33404;BME280;19751;40.274;18.268;2022-09-09T15:49:21;100832.75;;;32.48;66.97
33404;BME280;19751;40.274;18.268;2022-09-09T15:51:54;100826.31;;;32.56;67.00
33404;BME280;19751;40.274;18.268;2022-09-09T15:54:22;100832.03;;;32.89;66.00
33404;BME280;19751;40.274;18.268;2022-09-09T15:56:57;100827.91;;;33.58;62.92
33404;BME280;19751;40.274;18.268;2022-09-09T15:59:25;100826.03;;;34.41;59.16
33404;BME280;19751;40.274;18.268;2022-09-09T16:01:51;100824.97;;;35.19;56.24
33404;BME280;19751;40.274;18.268;2022-09-09T16:04:18;100823.34;;;35.58;54.69
33404;BME280;19751;40.274;18.268;2022-09-09T16:06:55;100829.16;;;35.81;54.13
33404;BME280;19751;40.274;18.268;2022-09-09T16:09:22;100821.69;;;35.85;54.26
33404;BME280;19751;40.274;18.268;2022-09-09T16:11:48;100835.03;;;35.76;54.67
33404;BME280;19751;40.274;18.268;2022-09-09T16:14:14;100831.28;;;35.44;55.71
33404;BME280;19751;40.274;18.268;2022-09-09T16:16:41;100825.75;;;34.55;59.76
33404;BME280;19751;40.274;18.268;2022-09-09T16:19:09;100832.28;;;33.68;63.95
33404;BME280;19751;40.274;18.268;2022-09-09T16:21:40;100840.56;;;32.93;67.27
33404;BME280;19751;40.274;18.268;2022-09-09T16:24:10;100837.69;;;32.34;70.87
33404;BME280;19751;40.274;18.268;2022-09-09T16:26:39;100832.91;;;31.87;73.86
33404;BME280;19751;40.274;18.268;2022-09-09T16:29:05;100841.13;;;31.49;76.76